Time;durP1;ratioP1;P1;durP2;ratioP2;P2;SDS_P1;SDS_P2;PMS_P1;PMS_P2;Temp;Humidity;BMP_temperature;BMP_pressure;BME280_temperature;BME280_humidity;BME280_pressure;Samples;Min_cycle;Max_cycle;Signal;HPM_P1;HPM_P2
2022/07/09 00:02:17;;;;;;;15.37;5.40;;;14.80;99.90;;;;;;4991869;28;20243;-57
2022/07/09 00:04:42;;;;;;;23.57;5.97;;;14.80;99.90;;;;;;4992907;28;20840;-57
2022/07/09 00:07:08;;;;;;;19.63;5.50;;;14.80;99.90;;;;;;4992674;28;20184;-56
2022/07/09 00:09:35;;;;;;;19.77;5.77;;;14.80;1.00;;;;;;4975108;28;20247;-56
2022/07/09 00:12:01;;;;;;;14.23;5.57;;;14.80;1.00;;;;;;4990842;28;20446;-54
2022/07/09 00:14:26;;;;;;;22.83;5.30;;;14.80;1.00;;;;;;4992415;28;20859;-57
2022/07/09 00:16:52;;;;;;;15.10;5.90;;;14.90;1.00;;;;;;4957717;28;20193;-57
2022/07/09 00:19:18;;;;;;;10.23;4.47;;;14.80;1.00;;;;;;4980514;28;20196;-57
2022/07/09 00:21:43;;;;;;;17.77;6.47;;;14.80;1.00;;;;;;4991671;28;20254;-58
2022/07/09 00:24:09;;;;;;;16.40;5.47;;;14.80;1.00;;;;;;4974050;28;20220;-56
2022/07/09 00:26:35;;;;;;;17.20;5.07;;;14.70;1.00;;;;;;4979283;28;20218;-57
2022/07/09 00:29:00;;;;;;;22.67;5.53;;;14.80;1.00;;;;;;4991969;28;20559;-57
2022/07/09 00:31:26;;;;;;;14.90;6.27;;;14.70;1.00;;;;;;4991189;28;20207;-57
2022/07/09 00:33:51;;;;;;;20.23;6.00;;;14.70;1.00;;;;;;4990298;28;20211;-53
2022/07/09 00:36:17;;;;;;;12.57;4.87;;;14.70;1.00;;;;;;4990979;28;20214;-56
2022/07/09 00:38:42;;;;;;;9.17;5.10;;;14.70;1.00;;;;;;4991853;28;20255;-57
2022/07/09 00:41:08;;;;;;;16.90;6.17;;;14.70;1.00;;;;;;4991010;28;20211;-57
2022/07/09 00:43:34;;;;;;;15.77;5.93;;;14.70;1.00;;;;;;4991846;28;20207;-57
2022/07/09 00:45:59;;;;;;;14.53;6.37;;;14.60;1.00;;;;;;4990178;28;20239;-56
2022/07/09 00:48:25;;;;;;;20.77;6.40;;;14.70;1.00;;;;;;4990701;28;20207;-57
2022/07/09 00:50:51;;;;;;;25.53;6.43;;;14.70;1.00;;;;;;4990703;28;20199;-57
2022/07/09 00:53:20;;;;;;;18.83;6.10;;;14.70;1.00;;;;;;4973867;28;20322;-57
2022/07/09 00:55:47;;;;;;;15.33;5.97;;;14.70;1.00;;;;;;4991285;28;20199;-54
2022/07/09 00:58:16;;;;;;;14.93;5.87;;;14.70;1.00;;;;;;4980344;28;20466;-57
2022/07/09 01:00:43;;;;;;;20.43;6.03;;;14.70;1.00;;;;;;4988800;28;20443;-57
2022/07/09 01:03:09;;;;;;;12.50;5.60;;;14.70;1.00;;;;;;4991295;28;20469;-56
2022/07/09 01:05:37;;;;;;;16.80;5.97;;;14.70;1.00;;;;;;4991353;28;20930;-56
2022/07/09 01:08:04;;;;;;;16.50;6.33;;;14.70;1.00;;;;;;4991456;28;20427;-56
2022/07/09 01:10:32;;;;;;;12.60;5.37;;;14.70;1.00;;;;;;4987799;28;20431;-57
2022/07/09 01:12:57;;;;;;;14.60;6.07;;;14.70;1.00;;;;;;4986523;28;20791;-57
2022/07/09 01:15:23;;;;;;;18.33;5.70;;;14.70;1.00;;;;;;4988420;28;20458;-57
2022/07/09 01:17:51;;;;;;;19.00;6.10;;;14.70;1.00;;;;;;4990584;28;20665;-57
2022/07/09 01:20:22;;;;;;;15.40;6.80;;;14.60;1.00;;;;;;4989354;28;20283;-57
2022/07/09 01:22:48;;;;;;;17.20;5.57;;;14.60;1.00;;;;;;4991091;28;20482;-57
2022/07/09 01:25:16;;;;;;;16.33;6.17;;;14.70;1.00;;;;;;4988844;28;20845;-57
2022/07/09 01:27:42;;;;;;;13.33;5.63;;;14.70;1.00;;;;;;4985451;28;20777;-56
2022/07/09 01:30:08;;;;;;;18.30;6.17;;;14.70;1.00;;;;;;4990515;28;20479;-57
2022/07/09 01:32:34;;;;;;;20.37;6.60;;;14.70;1.00;;;;;;4990950;28;20186;-57
2022/07/09 01:34:59;;;;;;;20.07;6.13;;;14.70;1.00;;;;;;4990319;28;20440;-57
2022/07/09 01:37:25;;;;;;;16.60;6.03;;;14.70;1.00;;;;;;4989388;28;20193;-57
2022/07/09 01:39:51;;;;;;;16.73;5.80;;;14.70;1.00;;;;;;4974520;28;20270;-58
2022/07/09 01:42:20;;;;;;;14.97;5.97;;;14.70;1.00;;;;;;4990020;28;20706;-57
2022/07/09 01:44:46;;;;;;;16.23;6.77;;;14.60;1.00;;;;;;4972867;28;20287;-57
2022/07/09 01:47:14;;;;;;;17.70;6.40;;;14.70;1.00;;;;;;4985129;28;20475;-57
2022/07/09 01:49:41;;;;;;;13.77;6.13;;;14.60;1.00;;;;;;4989691;28;20448;-56
2022/07/09 01:52:07;;;;;;;17.37;7.10;;;14.70;1.00;;;;;;4989987;28;20469;-56
2022/07/09 01:54:33;;;;;;;16.50;6.17;;;14.70;1.00;;;;;;4990444;28;20968;-56
2022/07/09 01:56:58;;;;;;;12.10;5.70;;;14.70;1.00;;;;;;4986095;28;20447;-56
2022/07/09 01:59:24;;;;;;;17.70;5.93;;;14.70;1.00;;;;;;4989985;28;20831;-56
2022/07/09 02:01:49;;;;;;;14.57;6.10;;;14.70;1.00;;;;;;4990435;28;20294;-57
2022/07/09 02:04:15;;;;;;;12.20;5.67;;;14.70;1.00;;;;;;4989947;28;20199;-56
2022/07/09 02:06:41;;;;;;;17.90;6.00;;;14.70;1.00;;;;;;4985526;28;20706;-56
2022/07/09 02:09:06;;;;;;;21.10;6.33;;;14.70;1.00;;;;;;4975014;28;20161;-56
2022/07/09 02:11:32;;;;;;;14.10;5.60;;;14.70;1.00;;;;;;4984494;28;20192;-57
2022/07/09 02:13:58;;;;;;;16.80;6.40;;;14.70;1.00;;;;;;4993332;28;20561;-57
2022/07/09 02:16:24;;;;;;;16.27;6.43;;;14.70;1.00;;;;;;4994676;28;20157;-57
2022/07/09 02:18:50;;;;;;;17.63;6.10;;;14.80;1.00;;;;;;4992758;28;20471;-57
2022/07/09 02:21:16;;;;;;;15.07;5.50;;;14.80;1.00;;;;;;4993711;28;20956;-57
2022/07/09 02:23:42;;;;;;;14.83;5.53;;;14.70;1.00;;;;;;4994170;28;20403;-58
2022/07/09 02:26:07;;;;;;;14.60;5.63;;;14.80;2.40;;;;;;4994228;28;20945;-56
2022/07/09 02:28:33;;;;;;;17.47;6.10;;;14.80;1.00;;;;;;4994387;28;20234;-57
2022/07/09 02:30:59;;;;;;;14.93;6.40;;;14.80;1.00;;;;;;4990944;28;20706;-55
2022/07/09 02:33:25;;;;;;;10.83;5.27;;;14.90;1.00;;;;;;4992883;28;20439;-57
2022/07/09 02:35:50;;;;;;;13.87;5.40;;;14.90;1.00;;;;;;4992373;28;20196;-57
2022/07/09 02:38:16;;;;;;;13.20;5.63;;;14.90;1.00;;;;;;4990634;28;20189;-57
2022/07/09 02:40:42;;;;;;;15.47;6.07;;;14.90;1.00;;;;;;4992605;28;20220;-56
2022/07/09 02:43:07;;;;;;;11.43;5.93;;;14.90;1.00;;;;;;4993435;28;20242;-56
2022/07/09 02:45:33;;;;;;;12.70;5.70;;;14.90;1.00;;;;;;4992701;28;20220;-55
2022/07/09 02:47:58;;;;;;;18.07;6.27;;;14.90;1.00;;;;;;4990935;28;20196;-57
2022/07/09 02:50:24;;;;;;;17.20;6.00;;;14.90;2.60;;;;;;4977717;28;20185;-57
2022/07/09 02:52:50;;;;;;;16.33;5.30;;;14.90;1.00;;;;;;4993110;28;21222;-56
2022/07/09 02:55:16;;;;;;;11.13;5.30;;;14.90;1.00;;;;;;4992906;28;20509;-57
2022/07/09 02:57:41;;;;;;;19.77;5.93;;;15.00;1.00;;;;;;4993738;28;20184;-56
2022/07/09 03:00:07;;;;;;;15.07;5.23;;;15.00;1.00;;;;;;4993273;28;20263;-56
2022/07/09 03:02:33;;;;;;;14.17;5.43;;;15.00;1.00;;;;;;4993036;28;20203;-57
2022/07/09 03:04:59;;;;;;;12.20;5.07;;;15.00;1.00;;;;;;4992855;28;20430;-56
2022/07/09 03:07:24;;;;;;;13.40;5.00;;;15.00;1.00;;;;;;4992631;28;20709;-56
2022/07/09 03:09:50;;;;;;;20.03;5.70;;;15.00;1.00;;;;;;4992750;28;20546;-56
2022/07/09 03:12:16;;;;;;;12.43;5.57;;;15.00;1.00;;;;;;4989541;28;20199;-57
2022/07/09 03:14:41;;;;;;;12.83;5.30;;;15.00;1.00;;;;;;4993519;28;20184;-56
2022/07/09 03:17:07;;;;;;;16.70;5.67;;;15.00;1.00;;;;;;4992798;28;20212;-57
2022/07/09 03:19:33;;;;;;;24.00;6.37;;;15.00;1.00;;;;;;4988412;28;20189;-56
2022/07/09 03:21:58;;;;;;;21.43;5.77;;;15.00;1.00;;;;;;4986433;28;20204;-56
2022/07/09 03:24:24;;;;;;;12.50;5.20;;;15.00;1.00;;;;;;4979998;28;20200;-55
2022/07/09 03:26:49;;;;;;;13.47;5.60;;;15.00;1.00;;;;;;4992677;28;20270;-56
2022/07/09 03:29:15;;;;;;;9.57;5.60;;;15.10;11.10;;;;;;4992637;28;20212;-57
2022/07/09 03:31:41;;;;;;;15.90;5.67;;;15.00;1.00;;;;;;4991695;28;20188;-57
2022/07/09 03:34:07;;;;;;;13.47;6.07;;;15.00;1.00;;;;;;4989451;28;20186;-57
2022/07/09 03:36:32;;;;;;;12.73;6.10;;;15.10;1.00;;;;;;4988204;28;20294;-56
2022/07/09 03:38:58;;;;;;;17.63;7.30;;;15.00;10.30;;;;;;4992231;28;20829;-56
2022/07/09 03:41:24;;;;;;;13.90;6.80;;;14.90;99.90;;;;;;4991253;28;20634;-56
2022/07/09 03:43:49;;;;;;;14.73;6.67;;;14.90;99.90;;;;;;4991066;28;20926;-57
2022/07/09 03:46:15;;;;;;;16.00;7.30;;;14.80;99.90;;;;;;4992083;28;20295;-56
2022/07/09 03:48:41;;;;;;;12.63;5.83;;;14.90;99.90;;;;;;4992741;28;20184;-56
2022/07/09 03:51:06;;;;;;;19.73;6.73;;;14.80;99.90;;;;;;4990663;28;20193;-56
2022/07/09 03:53:33;;;;;;;15.53;7.40;;;14.80;99.90;;;;;;4991675;28;20871;-56
2022/07/09 03:55:58;;;;;;;14.90;8.03;;;14.90;99.90;;;;;;4992305;28;20676;-57
2022/07/09 03:58:24;;;;;;;15.43;7.30;;;14.80;99.90;;;;;;4992552;28;20514;-54
2022/07/09 04:00:52;;;;;;;18.17;7.67;;;14.80;99.90;;;;;;4990894;28;20193;-55
2022/07/09 04:03:17;;;;;;;14.00;7.00;;;14.80;99.90;;;;;;4992567;28;20214;-56
2022/07/09 04:05:44;;;;;;;17.13;7.73;;;14.90;99.90;;;;;;4991255;28;20483;-56
2022/07/09 04:08:10;;;;;;;16.50;7.87;;;14.80;99.90;;;;;;4992542;28;20289;-56
2022/07/09 04:10:36;;;;;;;18.30;6.60;;;14.80;99.90;;;;;;4992019;28;20456;-53
2022/07/09 04:13:01;;;;;;;16.00;7.07;;;14.80;1.00;;;;;;4990805;28;20443;-56
2022/07/09 04:15:27;;;;;;;11.97;6.80;;;14.90;1.00;;;;;;4991563;28;20200;-56
2022/07/09 04:17:52;;;;;;;17.40;7.43;;;14.90;1.00;;;;;;4992520;28;20243;-56
2022/07/09 04:20:18;;;;;;;15.60;6.47;;;14.90;1.00;;;;;;4990019;28;20283;-56
2022/07/09 04:22:44;;;;;;;13.43;6.90;;;15.00;1.00;;;;;;4976504;28;20873;-56
2022/07/09 04:25:09;;;;;;;20.40;6.70;;;15.10;1.00;;;;;;4991193;28;20627;-56
2022/07/09 04:27:38;;;;;;;12.33;5.80;;;15.10;1.00;;;;;;4992238;28;20184;-56
2022/07/09 04:30:05;;;;;;;11.13;5.73;;;15.10;99.90;;;;;;4990554;28;20627;-56
2022/07/09 04:32:31;;;;;;;15.83;5.77;;;15.10;1.00;;;;;;4991063;28;20494;-56
2022/07/09 04:34:56;;;;;;;12.50;5.60;;;15.20;99.90;;;;;;4986884;28;20518;-56
2022/07/09 04:37:22;;;;;;;11.03;5.30;;;15.20;99.90;;;;;;4992149;28;20194;-56
2022/07/09 04:39:48;;;;;;;13.63;6.17;;;15.20;99.90;;;;;;4990833;28;20188;-56
2022/07/09 04:42:14;;;;;;;11.90;5.40;;;15.30;99.90;;;;;;4992060;28;20512;-57
2022/07/09 04:44:39;;;;;;;10.40;5.27;;;15.30;99.90;;;;;;4989964;28;20587;-56
2022/07/09 04:47:05;;;;;;;7.03;4.93;;;15.40;99.90;;;;;;4991226;28;20715;-56
2022/07/09 04:49:31;;;;;;;7.13;4.77;;;15.40;99.90;;;;;;4990082;28;20184;-56
2022/07/09 04:51:56;;;;;;;12.53;5.83;;;15.50;99.90;;;;;;4991559;28;20505;-56
2022/07/09 04:54:22;;;;;;;10.40;5.13;;;15.50;99.90;;;;;;4989764;28;20290;-56
2022/07/09 04:56:47;;;;;;;9.90;5.20;;;15.50;99.90;;;;;;4990832;28;20654;-56
2022/07/09 04:59:13;;;;;;;7.50;4.53;;;15.60;99.90;;;;;;4987799;28;20196;-56
2022/07/09 05:01:39;;;;;;;11.63;5.60;;;15.60;99.90;;;;;;4991353;28;20192;-57
2022/07/09 05:04:04;;;;;;;8.60;4.80;;;15.60;99.90;;;;;;4989845;28;20196;-56
2022/07/09 05:06:30;;;;;;;8.97;4.73;;;15.70;99.90;;;;;;4990822;28;20224;-56
2022/07/09 05:08:55;;;;;;;8.47;4.57;;;15.70;99.90;;;;;;4973287;28;20196;-56
2022/07/09 05:11:21;;;;;;;12.10;4.90;;;15.70;62.50;;;;;;4991383;28;20235;-57
2022/07/09 05:13:47;;;;;;;7.80;4.53;;;15.70;99.90;;;;;;4989888;28;20227;-55
2022/07/09 05:16:13;;;;;;;10.17;5.13;;;15.80;99.90;;;;;;4991028;28;20172;-57
2022/07/09 05:18:38;;;;;;;9.50;5.03;;;15.80;51.40;;;;;;4987555;28;20258;-56
2022/07/09 05:21:04;;;;;;;11.00;5.13;;;15.80;1.00;;;;;;4990201;28;20273;-56
2022/07/09 05:23:30;;;;;;;8.50;4.67;;;15.90;1.00;;;;;;4989518;28;20223;-57
2022/07/09 05:25:55;;;;;;;12.00;4.60;;;15.90;1.00;;;;;;4991281;28;20635;-56
2022/07/09 05:28:21;;;;;;;11.50;5.00;;;15.90;1.00;;;;;;4989795;28;20196;-56
2022/07/09 05:30:46;;;;;;;9.33;4.47;;;15.90;1.00;;;;;;4990593;28;20200;-56
2022/07/09 05:33:12;;;;;;;11.00;4.87;;;16.00;1.00;;;;;;4989913;28;20200;-56
2022/07/09 05:35:38;;;;;;;13.80;4.60;;;16.00;1.00;;;;;;4991067;28;20196;-57
2022/07/09 05:38:04;;;;;;;11.33;4.77;;;16.10;1.00;;;;;;4990464;28;20705;-57
2022/07/09 05:40:29;;;;;;;8.93;4.40;;;16.10;1.00;;;;;;4978355;28;20189;-56
2022/07/09 05:42:55;;;;;;;7.13;4.47;;;16.10;1.00;;;;;;4976646;28;20638;-56
2022/07/09 05:45:21;;;;;;;12.00;4.87;;;16.10;1.00;;;;;;4990932;28;20200;-56
2022/07/09 05:47:46;;;;;;;9.43;4.30;;;16.20;1.00;;;;;;4970538;28;20500;-53
2022/07/09 05:50:12;;;;;;;6.43;4.67;;;16.20;1.00;;;;;;4980721;28;20207;-56
2022/07/09 05:52:38;;;;;;;8.63;4.50;;;16.20;1.00;;;;;;4972306;28;20192;-56
2022/07/09 05:55:04;;;;;;;9.57;4.93;;;16.20;1.00;;;;;;4990463;28;20236;-56
2022/07/09 05:57:29;;;;;;;10.87;4.97;;;16.30;1.00;;;;;;4990096;28;20271;-54
2022/07/09 05:59:55;;;;;;;9.47;4.60;;;16.30;1.00;;;;;;4989884;28;20497;-57
2022/07/09 06:02:21;;;;;;;8.70;4.57;;;16.40;1.00;;;;;;4989233;28;20189;-56
2022/07/09 06:04:47;;;;;;;11.93;5.47;;;16.30;1.00;;;;;;4990806;28;20418;-57
2022/07/09 06:07:13;;;;;;;8.33;5.20;;;16.40;1.00;;;;;;4989762;28;20486;-55
2022/07/09 06:09:38;;;;;;;8.70;4.87;;;16.50;1.00;;;;;;4988834;28;20661;-56
2022/07/09 06:12:04;;;;;;;14.23;5.50;;;16.60;1.00;;;;;;4983099;28;20188;-56
2022/07/09 06:14:30;;;;;;;10.37;5.20;;;16.70;1.00;;;;;;4990498;28;20304;-56
2022/07/09 06:16:56;;;;;;;10.30;5.50;;;16.70;1.00;;;;;;4969742;28;20192;-56
2022/07/09 06:19:21;;;;;;;8.70;5.40;;;16.80;1.00;;;;;;4989804;28;20206;-57
2022/07/09 06:21:47;;;;;;;9.27;5.20;;;16.90;1.00;;;;;;4989980;28;20604;-57
2022/07/09 06:24:13;;;;;;;7.47;5.00;;;16.90;99.90;;;;;;4986184;28;20193;-56
2022/07/09 06:26:38;;;;;;;11.43;4.87;;;16.90;99.90;;;;;;4971131;28;20205;-56
2022/07/09 06:29:04;;;;;;;5.80;4.53;;;17.00;99.90;;;;;;4986393;28;20208;-56
2022/07/09 06:31:29;;;;;;;7.23;5.30;;;17.10;99.90;;;;;;4990353;28;20196;-56
2022/07/09 06:33:56;;;;;;;6.80;5.00;;;17.20;99.90;;;;;;4989564;28;20270;-56
2022/07/09 06:36:22;;;;;;;7.63;4.60;;;17.30;99.90;;;;;;4989552;28;20537;-57
2022/07/09 06:41:32;;;;;;;8.33;4.73;;;17.50;99.90;;;;;;4989632;28;20207;-57
2022/07/09 06:43:58;;;;;;;8.17;5.23;;;17.50;99.90;;;;;;4990283;28;20435;-57
2022/07/09 06:46:23;;;;;;;8.97;4.80;;;17.50;99.90;;;;;;4989146;28;20482;-56
2022/07/09 06:48:49;;;;;;;6.03;4.70;;;17.60;99.90;;;;;;4989843;28;20192;-57
2022/07/09 06:51:15;;;;;;;8.47;4.23;;;17.60;99.90;;;;;;4975730;28;20193;-57
2022/07/09 06:53:40;;;;;;;10.60;4.57;;;17.70;99.90;;;;;;4989863;28;20240;-56
2022/07/09 06:56:06;;;;;;;8.50;4.47;;;18.00;99.90;;;;;;4993984;28;20204;-57
2022/07/09 06:58:32;;;;;;;7.17;3.63;;;18.30;99.90;;;;;;4992051;28;20224;-57
2022/07/09 07:00:57;;;;;;;8.87;4.43;;;18.40;99.90;;;;;;4993071;28;20199;-56
2022/07/09 07:03:23;;;;;;;4.40;3.80;;;18.40;99.90;;;;;;4990802;28;20203;-57
2022/07/09 07:05:49;;;;;;;7.27;3.67;;;18.30;99.90;;;;;;4993770;28;20208;-57
2022/07/09 07:08:14;;;;;;;5.70;4.20;;;18.20;99.90;;;;;;4990081;28;20188;-55
2022/07/09 07:10:40;;;;;;;9.27;4.50;;;18.10;99.90;;;;;;4992947;28;20185;-57
2022/07/09 07:13:05;;;;;;;7.60;5.00;;;18.10;99.90;;;;;;4990423;28;20202;-57
2022/07/09 07:15:31;;;;;;;8.50;4.07;;;18.10;99.90;;;;;;4991858;28;20275;-56
2022/07/09 07:17:57;;;;;;;8.73;4.90;;;18.30;99.90;;;;;;4992753;28;20287;-56
2022/07/09 07:20:24;;;;;;;11.60;4.63;;;18.40;99.90;;;;;;4993567;28;20195;-56
2022/07/09 07:22:50;;;;;;;9.10;5.30;;;18.40;99.90;;;;;;4989940;28;20188;-62
2022/07/09 07:25:16;;;;;;;12.70;4.80;;;18.50;99.90;;;;;;4992937;28;20435;-57
2022/07/09 07:27:42;;;;;;;7.53;4.13;;;18.70;99.90;;;;;;4987821;28;20558;-57
2022/07/09 07:30:08;;;;;;;5.60;4.33;;;18.90;99.90;;;;;;4975391;28;21007;-56
2022/07/09 07:32:33;;;;;;;6.23;4.13;;;19.00;99.90;;;;;;4993120;28;20180;-57
2022/07/09 07:34:59;;;;;;;8.00;3.83;;;19.10;99.90;;;;;;4993109;28;20404;-57
2022/07/09 07:37:25;;;;;;;9.43;3.60;;;19.50;99.90;;;;;;4992066;28;20201;-56
2022/07/09 07:39:50;;;;;;;6.93;4.03;;;19.70;99.90;;;;;;4988576;28;20191;-57
2022/07/09 07:42:16;;;;;;;7.00;4.50;;;19.80;99.90;;;;;;4983682;28;20275;-57
2022/07/09 07:44:42;;;;;;;5.57;3.83;;;19.90;99.90;;;;;;4993077;28;20291;-58
2022/07/09 07:47:08;;;;;;;8.27;3.57;;;19.80;99.90;;;;;;4991904;28;20263;-57
2022/07/09 07:49:33;;;;;;;6.60;3.80;;;20.00;99.90;;;;;;4991045;28;20427;-56
2022/07/09 07:51:59;;;;;;;8.80;3.53;;;20.10;99.90;;;;;;4990957;28;20195;-57
2022/07/09 07:54:25;;;;;;;5.60;2.90;;;20.10;99.90;;;;;;5000052;28;20686;-57
2022/07/09 07:56:51;;;;;;;3.83;2.90;;;20.50;99.90;;;;;;4991456;28;20287;-57
2022/07/09 07:59:17;;;;;;;6.30;2.80;;;21.00;99.90;;;;;;4992863;28;20189;-57
2022/07/09 08:01:43;;;;;;;11.20;3.20;;;21.50;99.90;;;;;;4992177;28;20447;-56
2022/07/09 08:04:09;;;;;;;5.27;2.73;;;21.70;99.90;;;;;;4990977;28;20450;-57
2022/07/09 08:06:35;;;;;;;4.10;2.93;;;21.50;99.90;;;;;;4981832;28;20744;-55
2022/07/09 08:09:04;;;;;;;4.33;2.87;;;21.50;99.90;;;;;;4991412;28;20180;-57
2022/07/09 08:11:30;;;;;;;6.27;2.90;;;21.30;99.90;;;;;;4992754;28;20431;-57
2022/07/09 08:13:55;;;;;;;3.10;2.80;;;20.60;99.90;;;;;;4990129;28;20440;-57
2022/07/09 08:16:22;;;;;;;8.90;3.10;;;20.50;99.90;;;;;;4989360;28;20283;-62
2022/07/09 08:18:48;;;;;;;5.07;2.40;;;20.50;99.90;;;;;;4991560;28;20275;-57
2022/07/09 08:21:14;;;;;;;7.27;2.53;;;20.90;99.90;;;;;;4992552;28;20566;-57
2022/07/09 08:23:53;;;;;;;4.30;2.73;;;21.20;99.90;;;;;;4988872;28;20219;-57
2022/07/09 08:26:21;;;;;;;5.60;2.67;;;21.20;99.90;;;;;;4990874;28;20840;-57
2022/07/09 08:28:48;;;;;;;2.97;2.50;;;20.90;99.90;;;;;;4992118;28;20411;-58
2022/07/09 08:31:18;;;;;;;4.00;2.60;;;20.50;99.90;;;;;;4991591;28;20415;-57
2022/07/09 08:33:44;;;;;;;5.23;2.77;;;20.20;99.90;;;;;;4974968;28;20439;-56
2022/07/09 08:36:10;;;;;;;3.80;2.37;;;20.10;99.90;;;;;;4991443;28;20423;-58
2022/07/09 08:38:35;;;;;;;3.43;2.30;;;20.00;99.90;;;;;;4988524;28;20192;-60
2022/07/09 08:41:03;;;;;;;5.13;2.47;;;20.00;99.90;;;;;;4990047;28;21005;-57
2022/07/09 08:43:33;;;;;;;5.00;2.70;;;20.00;99.90;;;;;;4989854;28;20192;-61
2022/07/09 08:45:59;;;;;;;7.17;2.50;;;19.70;99.90;;;;;;4991892;28;20478;-57
2022/07/09 08:48:24;;;;;;;2.20;2.00;;;19.60;99.90;;;;;;4990623;28;20439;-58
2022/07/09 08:50:51;;;;;;;3.17;2.13;;;20.50;99.90;;;;;;4974295;28;20530;-57
2022/07/09 08:53:18;;;;;;;3.63;2.00;;;21.70;99.90;;;;;;4987001;28;20195;-58
2022/07/09 08:55:45;;;;;;;6.07;2.13;;;22.30;99.90;;;;;;4989949;28;20454;-58
2022/07/09 08:58:13;;;;;;;1.70;1.60;;;22.40;99.90;;;;;;4989470;28;20450;-57
2022/07/09 09:00:39;;;;;;;2.67;1.80;;;22.60;99.90;;;;;;4992238;28;20428;-58
2022/07/09 09:03:05;;;;;;;3.40;1.60;;;22.70;99.90;;;;;;4989530;28;20979;-58
2022/07/09 09:05:31;;;;;;;4.63;2.00;;;22.70;99.90;;;;;;4990142;28;20505;-57
2022/07/09 09:07:57;;;;;;;4.00;1.60;;;22.80;99.90;;;;;;4989213;28;20459;-57
2022/07/09 09:10:24;;;;;;;7.23;1.70;;;23.10;99.90;;;;;;4985730;28;20192;-57
2022/07/09 09:12:58;;;;;;;2.30;1.67;;;22.50;99.90;;;;;;4986469;28;20181;-57
2022/07/09 09:15:25;;;;;;;2.87;1.70;;;22.50;99.90;;;;;;4979255;28;20416;-57
2022/07/09 09:17:51;;;;;;;2.83;1.50;;;22.70;99.90;;;;;;4971734;28;20499;-57
2022/07/09 09:20:17;;;;;;;2.87;1.53;;;22.70;99.90;;;;;;4986869;28;21099;-56
2022/07/09 09:22:59;;;;;;;2.43;1.80;;;22.50;99.90;;;;;;4990894;28;20654;-57
2022/07/09 09:25:25;;;;;;;4.80;1.70;;;22.40;99.90;;;;;;4976108;28;20442;-57
2022/07/09 09:27:54;;;;;;;2.67;1.80;;;22.80;99.90;;;;;;4991300;28;20416;-57
2022/07/09 09:30:21;;;;;;;2.87;1.87;;;23.50;99.90;;;;;;4975270;28;20191;-57
2022/07/09 09:33:03;;;;;;;2.80;1.67;;;24.10;99.90;;;;;;4991070;28;20408;-57
2022/07/09 09:35:33;;;;;;;2.30;1.70;;;24.40;99.90;;;;;;4987109;28;20492;-56
2022/07/09 09:37:59;;;;;;;1.77;1.27;;;24.70;99.90;;;;;;4988006;28;20447;-58
2022/07/09 09:40:26;;;;;;;10.20;1.93;;;24.70;99.90;;;;;;4981534;28;20443;-58
2022/07/09 09:42:56;;;;;;;2.33;1.37;;;25.30;99.90;;;;;;4987645;28;20440;-57
2022/07/09 09:45:22;;;;;;;4.40;1.70;;;25.60;99.90;;;;;;4987698;28;20438;-52
2022/07/09 09:47:49;;;;;;;5.53;1.87;;;26.20;99.90;;;;;;4988540;28;20447;-53
2022/07/09 09:50:20;;;;;;;3.30;1.30;;;26.50;99.90;;;;;;4986572;28;20181;-52
2022/07/09 09:52:47;;;;;;;3.53;1.47;;;26.60;99.90;;;;;;4980951;28;20938;-52
2022/07/09 09:55:14;;;;;;;2.53;1.60;;;26.00;99.90;;;;;;4987521;28;20502;-57
2022/07/09 09:57:40;;;;;;;1.87;1.33;;;25.00;99.90;;;;;;4989268;28;20447;-57
2022/07/09 10:00:06;;;;;;;3.07;1.60;;;24.10;99.90;;;;;;4982609;28;21082;-57
2022/07/09 10:02:35;;;;;;;3.27;1.50;;;23.70;99.90;;;;;;4990075;28;20933;-56
2022/07/09 10:05:01;;;;;;;7.83;1.60;;;24.00;99.90;;;;;;4988983;28;20435;-56
2022/07/09 10:07:27;;;;;;;4.47;1.27;;;24.70;99.90;;;;;;4987724;28;20848;-56
2022/07/09 10:09:58;;;;;;;2.13;1.40;;;25.40;99.90;;;;;;4989177;28;20932;-54
2022/07/09 10:12:30;;;;;;;1.63;1.10;;;25.70;99.90;;;;;;4987708;28;20443;-56
2022/07/09 10:14:57;;;;;;;2.33;1.20;;;26.10;99.90;;;;;;4983291;28;20515;-59
2022/07/09 10:17:24;;;;;;;6.10;1.77;;;25.80;99.90;;;;;;4974233;28;20451;-57
2022/07/09 10:19:53;;;;;;;2.13;1.30;;;25.40;99.90;;;;;;4977425;28;20435;-57
2022/07/09 10:22:19;;;;;;;3.63;1.40;;;25.10;99.90;;;;;;4989843;28;20963;-56
2022/07/09 10:24:46;;;;;;;4.43;1.40;;;25.00;99.90;;;;;;4987583;28;20548;-57
2022/07/09 10:27:12;;;;;;;5.03;1.50;;;24.90;99.90;;;;;;4988987;28;20262;-56
2022/07/09 10:29:58;;;;;;;4.03;1.60;;;25.20;99.90;;;;;;4984568;28;21180;-54
2022/07/09 10:32:27;;;;;;;3.00;1.20;;;25.40;99.90;;;;;;4974904;28;20503;-57
2022/07/09 10:35:03;;;;;;;4.43;1.30;;;25.80;99.90;;;;;;4974712;28;20419;-56
2022/07/09 10:37:40;;;;;;;1.47;1.20;;;26.20;99.90;;;;;;4974834;28;20400;-56
2022/07/09 10:40:13;;;;;;;4.83;2.00;;;26.50;99.90;;;;;;4978989;28;20493;-57
2022/07/09 10:42:41;;;;;;;2.07;1.20;;;26.10;99.90;;;;;;4992735;28;20439;-55
2022/07/09 10:45:45;;;;;;;2.80;1.40;;;25.20;99.90;;;;;;4992720;28;20454;-57
2022/07/09 10:48:16;;;;;;;3.63;1.50;;;24.20;99.90;;;;;;4966108;28;20975;-56
2022/07/09 10:50:43;;;;;;;7.93;2.47;;;23.40;99.90;;;;;;4990572;28;20435;-56
2022/07/09 10:53:11;;;;;;;3.77;1.20;;;22.60;99.90;;;;;;4992867;28;20542;-55
2022/07/09 10:55:37;;;;;;;3.87;1.73;;;22.10;99.90;;;;;;4989015;28;20456;-56
2022/07/09 10:58:07;;;;;;;2.77;1.77;;;21.60;99.90;;;;;;4992858;28;20505;-55
2022/07/09 11:00:34;;;;;;;4.40;1.70;;;21.50;99.90;;;;;;4994039;28;20787;-56
2022/07/09 11:03:05;;;;;;;1.93;1.40;;;21.70;99.90;;;;;;4993636;28;20905;-56
2022/07/09 11:05:33;;;;;;;3.30;1.40;;;22.90;99.90;;;;;;4986929;28;20471;-57
2022/07/09 11:07:59;;;;;;;1.90;1.40;;;23.80;99.90;;;;;;4984344;28;20436;-56
2022/07/09 11:10:27;;;;;;;3.30;1.43;;;23.60;99.90;;;;;;4994329;28;20909;-56
2022/07/09 11:12:54;;;;;;;2.13;1.20;;;23.40;99.90;;;;;;4990972;28;20750;-56
2022/07/09 11:15:21;;;;;;;2.50;1.20;;;23.70;99.90;;;;;;4993029;28;20446;-55
2022/07/09 11:18:04;;;;;;;2.70;1.40;;;24.50;99.90;;;;;;4995427;28;20444;-54
2022/07/09 11:20:32;;;;;;;3.43;1.10;;;25.20;99.90;;;;;;4993154;28;20447;-57
2022/07/09 11:23:00;;;;;;;3.13;1.20;;;25.40;99.90;;;;;;4991850;28;22023;-56
2022/07/09 11:25:27;;;;;;;3.07;1.37;;;26.00;99.90;;;;;;4973945;28;20424;-55
2022/07/09 11:27:56;;;;;;;3.40;1.00;;;26.50;99.90;;;;;;4977671;28;20435;-57
2022/07/09 11:30:22;;;;;;;1.27;0.90;;;26.80;99.90;;;;;;4985312;28;20521;-56
2022/07/09 11:32:48;;;;;;;6.10;1.63;;;26.40;99.90;;;;;;4985717;28;20439;-57
2022/07/09 11:35:24;;;;;;;2.27;1.00;;;25.80;99.90;;;;;;4991093;28;20443;-56
2022/07/09 11:37:49;;;;;;;3.20;1.13;;;25.30;99.90;;;;;;4990139;28;20835;-56
2022/07/09 11:40:20;;;;;;;3.83;1.17;;;24.30;99.90;;;;;;4986785;28;20529;-56
2022/07/09 11:42:46;;;;;;;2.43;1.30;;;24.00;99.90;;;;;;4973826;28;20260;-57
2022/07/09 11:45:12;;;;;;;3.00;1.30;;;24.60;99.90;;;;;;4977824;28;20845;-56
2022/07/09 11:47:39;;;;;;;1.40;1.30;;;25.70;99.90;;;;;;4990288;28;20815;-54
2022/07/09 11:50:09;;;;;;;2.20;1.10;;;26.20;99.90;;;;;;4989566;28;20883;-57
2022/07/09 11:52:35;;;;;;;4.30;1.10;;;26.10;99.90;;;;;;4989696;28;20442;-56
2022/07/09 11:55:08;;;;;;;3.00;1.40;;;26.40;99.90;;;;;;4986800;28;21039;-56
2022/07/09 11:57:36;;;;;;;2.67;1.43;;;26.80;99.90;;;;;;4988713;28;20452;-55
2022/07/09 12:00:24;;;;;;;2.70;1.00;;;26.70;99.90;;;;;;4991137;28;20440;-55
2022/07/09 12:02:50;;;;;;;3.30;1.10;;;26.80;99.90;;;;;;4992761;28;20404;-57
2022/07/09 12:05:27;;;;;;;5.27;1.50;;;26.00;99.90;;;;;;4991645;28;20497;-57
2022/07/09 12:07:53;;;;;;;3.17;1.40;;;25.50;99.90;;;;;;4990622;28;20234;-57
2022/07/09 12:10:30;;;;;;;1.80;1.17;;;25.60;99.90;;;;;;4991142;28;20521;-56
2022/07/09 12:12:57;;;;;;;2.93;1.37;;;25.90;99.90;;;;;;4992557;28;20430;-55
2022/07/09 12:15:23;;;;;;;3.20;1.10;;;26.00;99.90;;;;;;4991778;28;20451;-56
2022/07/09 12:17:59;;;;;;;3.73;1.60;;;25.80;99.90;;;;;;4969931;28;20444;-60
2022/07/09 12:20:27;;;;;;;2.80;1.20;;;25.10;99.90;;;;;;4989442;28;20195;-54
2022/07/09 12:22:53;;;;;;;2.47;1.37;;;24.40;99.90;;;;;;4988326;28;20495;-51
2022/07/09 12:25:20;;;;;;;3.40;1.77;;;23.70;99.90;;;;;;4988726;28;20475;-51
2022/07/09 12:27:46;;;;;;;2.20;1.40;;;23.30;99.90;;;;;;4981297;28;20196;-51
2022/07/09 12:30:12;;;;;;;4.27;1.70;;;22.90;99.90;;;;;;4975072;28;20443;-52
2022/07/09 12:32:39;;;;;;;4.50;1.50;;;22.70;99.90;;;;;;4964288;28;20534;-51
2022/07/09 12:35:06;;;;;;;3.00;1.60;;;23.20;99.90;;;;;;4989450;28;20782;-51
2022/07/09 12:37:31;;;;;;;2.87;1.73;;;24.10;99.90;;;;;;4980809;28;20546;-51
2022/07/09 12:39:57;;;;;;;4.47;1.43;;;24.50;99.90;;;;;;4990593;28;20964;-51
2022/07/09 12:42:22;;;;;;;3.20;1.77;;;24.80;99.90;;;;;;4990405;28;20192;-51
2022/07/09 12:44:48;;;;;;;6.83;2.00;;;25.50;99.90;;;;;;4989151;28;20206;-51
2022/07/09 12:47:14;;;;;;;5.20;1.80;;;26.10;99.90;;;;;;4988330;28;20278;-52